LCY weather

London City Airport
London, England, United Kingdom

Public forecast

Using degrees Celsius for public forecast. Weather courtesy of forecast.io.

METAR (pilot weather report)

Retrieved 2018/10/16 12:20 UTC (53 seconds ago):

EGLC 161220Z AUTO 20008G19KT 140V240 9999 FEW027 21/14 Q1015

TAF (pilot weather forecast)

Forecast is more than 12 hours old.

Retrieved 2018/10/15 21:30 UTC (15 hours ago):

TAF EGLC 152119Z 1521/1621 CNL